Sliven, Bulgaria
Current Conditions -  °F | °C
As of 3:00 AM on Thursday 29 Jan 2015 (Local Time) from LBGO Reporting Station
Haze Haze  
Wind Chill: 29°   Ceiling: 300
Heat Index: 34°   Visibility: 1.5mi
Dew Point: 34°   Wind: 6mph
Humidity: 100%   Direction: 110°ESE
Pressure: 29.91"   Gusts: NA
Location:  42.68°N, 26.32°E
Report Text: LBGO 290000Z 11005KT 2400 BR OVC003 01/01 Q1013 R99/29//94 NOSIG
Loading
Personal Weather Stations






























Interactive Weather Map New forecast layout! Learn more

10-Day Weather Forecast

Advertisements
Track Severe Weather on mobile